sensor_id;sensor_type;location;lat;lon;timestamp;temperature;humidity
28069;DHT22;15382;47.578;8.086;2022-08-11T00:03:56;19.00;98.00
28069;DHT22;15382;47.578;8.086;2022-08-11T00:13:58;18.90;98.20
28069;DHT22;15382;47.578;8.086;2022-08-11T00:24:00;18.80;98.40
28069;DHT22;15382;47.578;8.086;2022-08-11T00:34:02;19.10;97.70
28069;DHT22;15382;47.578;8.086;2022-08-11T00:44:39;19.10;97.80
28069;DHT22;15382;47.578;8.086;2022-08-11T00:55:06;19.00;98.00
28069;DHT22;15382;47.578;8.086;2022-08-11T01:05:22;19.00;98.00
28069;DHT22;15382;47.578;8.086;2022-08-11T02:08:35;18.40;99.90
28069;DHT22;15382;47.578;8.086;2022-08-11T02:18:42;18.20;99.90
28069;DHT22;15382;47.578;8.086;2022-08-11T02:39:14;18.00;99.90
28069;DHT22;15382;47.578;8.086;2022-08-11T02:49:43;17.80;99.90
28069;DHT22;15382;47.578;8.086;2022-08-11T03:00:06;17.80;99.90
28069;DHT22;15382;47.578;8.086;2022-08-11T03:20:35;17.70;99.90
28069;DHT22;15382;47.578;8.086;2022-08-11T03:30:47;17.60;99.90
28069;DHT22;15382;47.578;8.086;2022-08-11T03:41:12;17.60;99.90
28069;DHT22;15382;47.578;8.086;2022-08-11T03:51:55;17.40;99.90
28069;DHT22;15382;47.578;8.086;2022-08-11T04:53:40;16.80;99.90
28069;DHT22;15382;47.578;8.086;2022-08-11T05:14:53;17.20;99.90
28069;DHT22;15382;47.578;8.086;2022-08-11T05:25:26;17.30;99.90
28069;DHT22;15382;47.578;8.086;2022-08-11T05:35:49;17.30;99.90
28069;DHT22;15382;47.578;8.086;2022-08-11T05:46:05;17.50;99.90
28069;DHT22;15382;47.578;8.086;2022-08-11T05:56:24;17.90;99.90
28069;DHT22;15382;47.578;8.086;2022-08-11T06:06:26;18.40;99.90
28069;DHT22;15382;47.578;8.086;2022-08-11T06:16:28;18.80;99.90
28069;DHT22;15382;47.578;8.086;2022-08-11T06:26:29;19.20;99.90
28069;DHT22;15382;47.578;8.086;2022-08-11T06:36:39;19.80;99.90
28069;DHT22;15382;47.578;8.086;2022-08-11T06:46:51;20.50;99.90
28069;DHT22;15382;47.578;8.086;2022-08-11T06:56:52;20.90;99.90
28069;DHT22;15382;47.578;8.086;2022-08-11T07:17:51;22.00;99.90
28069;DHT22;15382;47.578;8.086;2022-08-11T07:28:24;22.50;99.90
28069;DHT22;15382;47.578;8.086;2022-08-11T07:38:48;23.50;99.90
28069;DHT22;15382;47.578;8.086;2022-08-11T07:48:51;24.00;98.30
28069;DHT22;15382;47.578;8.086;2022-08-11T07:59:11;24.40;98.30
28069;DHT22;15382;47.578;8.086;2022-08-11T08:09:33;24.70;97.80
28069;DHT22;15382;47.578;8.086;2022-08-11T08:19:53;25.50;96.80
28069;DHT22;15382;47.578;8.086;2022-08-11T08:29:56;26.00;96.30
28069;DHT22;15382;47.578;8.086;2022-08-11T08:40:16;25.70;96.80
28069;DHT22;15382;47.578;8.086;2022-08-11T08:50:21;26.60;95.70
28069;DHT22;15382;47.578;8.086;2022-08-11T09:00:23;27.20;95.40
28069;DHT22;15382;47.578;8.086;2022-08-11T09:10:25;27.40;95.10
28069;DHT22;15382;47.578;8.086;2022-08-11T09:20:27;28.10;93.80
28069;DHT22;15382;47.578;8.086;2022-08-11T09:30:33;28.60;93.60
28069;DHT22;15382;47.578;8.086;2022-08-11T09:40:35;28.80;92.50
28069;DHT22;15382;47.578;8.086;2022-08-11T09:50:36;29.10;92.80
28069;DHT22;15382;47.578;8.086;2022-08-11T10:00:39;29.50;92.10
28069;DHT22;15382;47.578;8.086;2022-08-11T10:10:41;29.90;91.50
28069;DHT22;15382;47.578;8.086;2022-08-11T10:20:44;29.50;92.00
28069;DHT22;15382;47.578;8.086;2022-08-11T10:30:50;30.40;90.90
28069;DHT22;15382;47.578;8.086;2022-08-11T10:41:10;30.50;90.60
28069;DHT22;15382;47.578;8.086;2022-08-11T10:51:30;31.40;90.30
28069;DHT22;15382;47.578;8.086;2022-08-11T11:01:51;31.60;89.60
28069;DHT22;15382;47.578;8.086;2022-08-11T11:12:19;31.70;89.10
28069;DHT22;15382;47.578;8.086;2022-08-11T11:22:37;31.20;89.60
28069;DHT22;15382;47.578;8.086;2022-08-11T11:43:05;32.20;87.00
28069;DHT22;15382;47.578;8.086;2022-08-11T11:53:08;31.60;88.50
28069;DHT22;15382;47.578;8.086;2022-08-11T12:03:11;31.60;87.50
28069;DHT22;15382;47.578;8.086;2022-08-11T12:13:14;32.20;89.20
28069;DHT22;15382;47.578;8.086;2022-08-11T12:23:36;32.50;86.70
28069;DHT22;15382;47.578;8.086;2022-08-11T12:34:14;32.90;84.70
28069;DHT22;15382;47.578;8.086;2022-08-11T12:44:15;33.00;85.20
28069;DHT22;15382;47.578;8.086;2022-08-11T13:04:49;33.50;82.70
28069;DHT22;15382;47.578;8.086;2022-08-11T13:14:59;31.50;85.20
28069;DHT22;15382;47.578;8.086;2022-08-11T13:25:03;33.20;82.70
28069;DHT22;15382;47.578;8.086;2022-08-11T13:35:04;33.90;83.00
28069;DHT22;15382;47.578;8.086;2022-08-11T13:45:06;33.30;83.50
28069;DHT22;15382;47.578;8.086;2022-08-11T13:55:10;33.20;82.80
28069;DHT22;15382;47.578;8.086;2022-08-11T14:05:47;33.50;83.30
28069;DHT22;15382;47.578;8.086;2022-08-11T14:15:49;33.00;83.80
28069;DHT22;15382;47.578;8.086;2022-08-11T14:25:50;33.10;83.60
28069;DHT22;15382;47.578;8.086;2022-08-11T14:36:10;32.70;83.40
28069;DHT22;15382;47.578;8.086;2022-08-11T14:46:12;32.30;85.30
28069;DHT22;15382;47.578;8.086;2022-08-11T14:56:31;32.60;84.00
28069;DHT22;15382;47.578;8.086;2022-08-11T15:06:38;32.60;84.30
28069;DHT22;15382;47.578;8.086;2022-08-11T15:16:41;32.30;85.20
28069;DHT22;15382;47.578;8.086;2022-08-11T15:27:04;32.80;83.40
28069;DHT22;15382;47.578;8.086;2022-08-11T15:37:27;31.80;84.60
28069;DHT22;15382;47.578;8.086;2022-08-11T15:47:43;31.80;84.00
28069;DHT22;15382;47.578;8.086;2022-08-11T15:57:46;30.80;86.20
28069;DHT22;15382;47.578;8.086;2022-08-11T16:08:06;30.70;85.80
28069;DHT22;15382;47.578;8.086;2022-08-11T16:18:08;30.00;87.20
28069;DHT22;15382;47.578;8.086;2022-08-11T16:28:12;29.90;86.60
28069;DHT22;15382;47.578;8.086;2022-08-11T16:38:14;29.50;87.70
28069;DHT22;15382;47.578;8.086;2022-08-11T16:48:36;29.30;87.90
28069;DHT22;15382;47.578;8.086;2022-08-11T16:58:37;29.40;87.20
28069;DHT22;15382;47.578;8.086;2022-08-11T17:08:59;28.80;88.80
28069;DHT22;15382;47.578;8.086;2022-08-11T17:19:24;28.50;89.70
28069;DHT22;15382;47.578;8.086;2022-08-11T17:29:33;28.50;89.10
28069;DHT22;15382;47.578;8.086;2022-08-11T17:39:35;28.30;89.80
28069;DHT22;15382;47.578;8.086;2022-08-11T17:49:37;28.00;89.90
28069;DHT22;15382;47.578;8.086;2022-08-11T17:59:39;27.80;90.10
28069;DHT22;15382;47.578;8.086;2022-08-11T18:09:52;27.40;91.20
28069;DHT22;15382;47.578;8.086;2022-08-11T18:20:12;27.00;91.80
28069;DHT22;15382;47.578;8.086;2022-08-11T18:30:34;26.60;92.40
28069;DHT22;15382;47.578;8.086;2022-08-11T18:40:54;26.30;93.20
28069;DHT22;15382;47.578;8.086;2022-08-11T18:51:15;25.80;93.20
28069;DHT22;15382;47.578;8.086;2022-08-11T19:01:36;25.50;94.00
28069;DHT22;15382;47.578;8.086;2022-08-11T19:11:58;25.00;93.90
28069;DHT22;15382;47.578;8.086;2022-08-11T19:22:19;24.70;94.20
28069;DHT22;15382;47.578;8.086;2022-08-11T19:32:39;24.30;94.90
28069;DHT22;15382;47.578;8.086;2022-08-11T19:43:00;23.90;95.20
28069;DHT22;15382;47.578;8.086;2022-08-11T19:53:21;23.40;96.00
28069;DHT22;15382;47.578;8.086;2022-08-11T20:03:41;23.30;96.20
28069;DHT22;15382;47.578;8.086;2022-08-11T20:14:02;23.00;96.70
28069;DHT22;15382;47.578;8.086;2022-08-11T20:24:22;22.60;96.90
28069;DHT22;15382;47.578;8.086;2022-08-11T20:34:43;22.50;97.10
28069;DHT22;15382;47.578;8.086;2022-08-11T20:45:06;22.40;97.30
28069;DHT22;15382;47.578;8.086;2022-08-11T20:55:26;22.10;97.60
28069;DHT22;15382;47.578;8.086;2022-08-11T21:05:47;21.90;98.00
28069;DHT22;15382;47.578;8.086;2022-08-11T21:16:07;21.80;98.20
28069;DHT22;15382;47.578;8.086;2022-08-11T21:26:31;21.70;98.40
28069;DHT22;15382;47.578;8.086;2022-08-11T21:36:51;21.50;98.70
28069;DHT22;15382;47.578;8.086;2022-08-11T21:47:11;21.40;98.80
28069;DHT22;15382;47.578;8.086;2022-08-11T21:57:32;21.30;98.90
28069;DHT22;15382;47.578;8.086;2022-08-11T22:07:52;21.30;99.00
28069;DHT22;15382;47.578;8.086;2022-08-11T22:18:12;21.10;99.40
28069;DHT22;15382;47.578;8.086;2022-08-11T22:28:31;21.00;99.40
28069;DHT22;15382;47.578;8.086;2022-08-11T22:38:52;20.90;99.60
28069;DHT22;15382;47.578;8.086;2022-08-11T22:49:11;20.80;99.90
28069;DHT22;15382;47.578;8.086;2022-08-11T22:59:31;20.70;99.90
28069;DHT22;15382;47.578;8.086;2022-08-11T23:09:51;20.50;99.90
28069;DHT22;15382;47.578;8.086;2022-08-11T23:20:14;20.50;99.90
28069;DHT22;15382;47.578;8.086;2022-08-11T23:30:34;20.10;99.90
28069;DHT22;15382;47.578;8.086;2022-08-11T23:40:54;20.30;99.90
28069;DHT22;15382;47.578;8.086;2022-08-11T23:51:15;20.20;99.90
